Time;durP1;ratioP1;P1;durP2;ratioP2;P2;SDS_P1;SDS_P2;PMS_P1;PMS_P2;Temp;Humidity;BMP_temperature;BMP_pressure;BME280_temperature;BME280_humidity;BME280_pressure;Samples;Min_cycle;Max_cycle;Signal;HPM_P1;HPM_P2
2023/09/22 00:02:03;;;;;;;;;0.00;0.00;;;;;15.57;75.50;98165.13;5096703;28;9555;-56
2023/09/22 00:04:32;;;;;;;;;0.00;0.00;;;;;15.58;75.06;98159.56;5097518;28;8873;-58
2023/09/22 00:07:00;;;;;;;;;0.60;0.20;;;;;15.60;74.98;98159.34;5097662;28;8814;-57
2023/09/22 00:09:28;;;;;;;;;0.00;0.00;;;;;15.63;75.48;98161.66;5097516;28;8861;-57
2023/09/22 00:11:56;;;;;;;;;0.00;0.00;;;;;15.66;74.94;98155.88;5097262;28;8838;-58
2023/09/22 00:14:23;;;;;;;;;1.00;0.00;;;;;15.68;74.99;98161.88;5097273;28;8831;-56
2023/09/22 00:16:51;;;;;;;;;0.00;0.00;;;;;15.69;75.34;98163.56;5096964;28;8810;-57
2023/09/22 00:19:18;;;;;;;;;0.00;0.00;;;;;15.71;75.61;98162.31;5097459;28;8822;-56
2023/09/22 00:21:46;;;;;;;;;0.00;0.00;;;;;15.73;75.56;98175.53;5097586;28;9555;-57
2023/09/22 00:24:14;;;;;;;;;0.60;0.00;;;;;15.74;74.98;98178.03;5097298;28;8826;-58
2023/09/22 00:26:42;;;;;;;;;0.00;0.00;;;;;15.76;75.43;98185.91;5096446;28;8838;-56
2023/09/22 00:29:09;;;;;;;;;1.00;0.00;;;;;15.79;75.69;98196.22;5094704;28;8814;-58
2023/09/22 00:31:38;;;;;;;;;0.80;0.80;;;;;15.77;75.83;98188.34;5095874;28;8810;-56
2023/09/22 00:34:06;;;;;;;;;0.00;0.00;;;;;15.77;75.81;98182.19;5096595;28;8887;-56
2023/09/22 00:36:35;;;;;;;;;0.20;0.20;;;;;15.76;75.82;98173.28;5096691;28;8832;-57
2023/09/22 00:39:04;;;;;;;;;2.20;2.20;;;;;15.77;75.59;98184.88;5096483;28;9504;-58
2023/09/22 00:41:33;;;;;;;;;1.00;1.00;;;;;15.75;75.62;98185.06;5096297;28;8820;-57
2023/09/22 00:44:01;;;;;;;;;1.00;1.00;;;;;15.73;75.44;98188.97;5096469;28;8841;-55
2023/09/22 00:46:28;;;;;;;;;0.80;0.00;;;;;15.67;76.25;98197.78;5095588;28;8828;-60
2023/09/22 00:48:56;;;;;;;;;1.00;1.00;;;;;15.60;75.85;98203.13;5095385;28;8860;-57
2023/09/22 00:51:25;;;;;;;;;3.00;1.00;;;;;15.52;76.09;98200.59;5095706;28;8821;-59
2023/09/22 00:53:53;;;;;;;;;1.00;1.00;;;;;15.45;76.58;98213.13;5095037;28;8846;-57
2023/09/22 00:56:21;;;;;;;;;1.00;0.40;;;;;15.38;76.79;98214.09;5095407;28;8865;-58
2023/09/22 00:58:49;;;;;;;;;1.00;1.00;;;;;15.33;76.78;98216.53;5095901;28;8852;-57
2023/09/22 01:01:16;;;;;;;;;1.00;1.00;;;;;15.31;76.33;98223.91;5096278;28;8841;-58
2023/09/22 01:03:44;;;;;;;;;1.00;1.00;;;;;15.29;76.52;98208.00;5096027;28;8896;-59
2023/09/22 01:06:12;;;;;;;;;1.00;1.00;;;;;15.28;76.81;98218.94;5095364;28;8834;-56
2023/09/22 01:08:40;;;;;;;;;1.00;1.00;;;;;15.24;76.48;98223.03;5095694;28;8838;-58
2023/09/22 01:11:08;;;;;;;;;1.00;1.00;;;;;15.23;76.69;98234.75;5095335;28;8848;-59
2023/09/22 01:13:36;;;;;;;;;1.00;1.00;;;;;15.23;76.76;98235.59;5093409;28;8818;-59
2023/09/22 01:16:04;;;;;;;;;0.50;0.50;;;;;15.23;76.38;98237.44;5093363;28;8877;-59
2023/09/22 01:18:32;;;;;;;;;2.00;2.00;;;;;15.23;76.58;98235.59;5094550;28;8930;-58
2023/09/22 01:20:59;;;;;;;;;0.00;0.00;;;;;15.25;76.15;98236.22;5095536;28;8829;-58
2023/09/22 01:23:27;;;;;;;;;1.00;1.00;;;;;15.28;76.53;98240.38;5095333;28;8826;-58
2023/09/22 01:25:55;;;;;;;;;1.00;1.00;;;;;15.26;76.69;98242.44;5094509;28;8808;-58
2023/09/22 01:28:23;;;;;;;;;2.00;1.00;;;;;15.23;76.21;98237.44;5094719;28;8834;-57
2023/09/22 01:30:51;;;;;;;;;3.00;3.00;;;;;15.18;76.37;98243.38;5094027;28;8961;-59
2023/09/22 01:33:20;;;;;;;;;3.25;1.00;;;;;15.17;76.64;98248.97;5094441;28;8836;-58
2023/09/22 01:35:48;;;;;;;;;3.40;1.80;;;;;15.14;76.24;98244.81;5095234;28;9496;-58
2023/09/22 01:38:16;;;;;;;;;1.50;1.50;;;;;15.13;76.72;98243.16;5095373;28;8839;-57
2023/09/22 01:40:45;;;;;;;;;3.00;1.00;;;;;15.12;76.22;98252.22;5095224;28;8900;-58
2023/09/22 01:43:14;;;;;;;;;1.40;1.40;;;;;15.11;75.91;98263.94;5095006;28;8954;-59
2023/09/22 01:45:42;;;;;;;;;1.00;1.00;;;;;15.12;76.48;98267.47;5093915;28;8904;-58
2023/09/22 01:48:10;;;;;;;;;2.60;2.60;;;;;15.10;76.15;98277.56;5093621;28;8812;-58
2023/09/22 01:50:38;;;;;;;;;0.75;0.75;;;;;15.10;76.17;98275.69;5094535;28;8831;-58
2023/09/22 01:53:08;;;;;;;;;1.00;1.00;;;;;15.10;76.12;98285.59;5095882;28;9117;-56
2023/09/22 01:55:36;;;;;;;;;2.00;2.00;;;;;15.08;76.92;98296.50;5094844;28;8820;-56
2023/09/22 01:58:04;;;;;;;;;1.00;1.00;;;;;15.04;76.32;98281.00;5095061;28;8966;-59
2023/09/22 02:00:33;;;;;;;;;3.00;3.00;;;;;15.00;76.79;98277.03;5094214;28;8862;-59
2023/09/22 02:03:01;;;;;;;;;0.00;0.00;;;;;14.96;76.69;98283.81;5093969;28;8840;-58
2023/09/22 02:05:29;;;;;;;;;1.00;1.00;;;;;14.95;77.03;98287.50;5092966;28;8869;-58
2023/09/22 02:10:39;;;;;;;;;1.00;1.00;;;;;14.99;76.55;98294.13;5073920;28;8852;-59
2023/09/22 02:13:12;;;;;;;;;0.75;0.75;;;;;15.00;76.24;98285.06;5075013;28;8840;-57
2023/09/22 02:15:42;;;;;;;;;0.00;0.00;;;;;15.01;76.32;98292.13;5074268;28;8921;-58
2023/09/22 02:18:11;;;;;;;;;1.00;1.00;;;;;15.02;76.07;98293.78;5073514;28;8864;-57
2023/09/22 02:20:40;;;;;;;;;1.00;1.00;;;;;14.99;76.23;98288.78;5073888;28;8824;-60
2023/09/22 02:23:08;;;;;;;;;3.25;2.00;;;;;14.93;76.11;98278.81;5074497;28;8866;-58
2023/09/22 02:25:36;;;;;;;;;1.00;1.00;;;;;14.88;76.23;98278.56;5085023;28;8816;-59
2023/09/22 02:28:04;;;;;;;;;1.00;1.00;;;;;14.82;76.71;98282.84;5094416;28;8816;-58
2023/09/22 02:30:34;;;;;;;;;0.50;0.50;;;;;14.75;76.36;98271.22;5094474;28;8839;-59
2023/09/22 02:33:02;;;;;;;;;1.00;1.00;;;;;14.70;76.84;98280.81;5093624;28;8851;-57
2023/09/22 02:35:31;;;;;;;;;1.00;1.00;;;;;14.64;76.89;98278.91;5093432;28;8901;-56
2023/09/22 02:37:59;;;;;;;;;3.00;1.00;;;;;14.60;77.32;98285.66;5093709;28;8812;-57
2023/09/22 02:40:27;;;;;;;;;1.00;1.00;;;;;14.58;77.02;98285.81;5093334;28;8998;-57
2023/09/22 02:42:55;;;;;;;;;2.00;2.00;;;;;14.58;77.24;98283.16;5092640;28;8925;-58
2023/09/22 02:45:23;;;;;;;;;2.00;2.00;;;;;14.60;76.97;98294.53;5094372;28;8829;-58
2023/09/22 02:47:51;;;;;;;;;1.00;1.00;;;;;14.64;76.65;98300.34;5094375;28;8956;-59
2023/09/22 02:50:19;;;;;;;;;3.00;3.00;;;;;14.66;76.56;98290.25;5094568;28;8952;-59
2023/09/22 02:52:47;;;;;;;;;2.50;1.50;;;;;14.68;76.47;98299.78;5094275;28;8842;-57
2023/09/22 02:55:16;;;;;;;;;3.00;3.00;;;;;14.71;76.11;98298.56;5094172;28;8850;-59
2023/09/22 02:57:46;;;;;;;;;3.00;2.00;;;;;14.74;76.49;98303.53;5094414;28;8844;-58
2023/09/22 03:00:18;;;;;;;;;1.50;1.50;;;;;14.76;75.96;98301.50;5093539;28;9705;-59
2023/09/22 03:02:47;;;;;;;;;1.50;1.00;;;;;14.79;76.22;98298.47;5094095;28;9561;-59
2023/09/22 03:05:16;;;;;;;;;1.50;1.50;;;;;14.78;76.04;98291.41;5094153;28;8838;-59
2023/09/22 03:07:46;;;;;;;;;1.00;1.00;;;;;14.76;76.33;98293.47;5093786;28;8912;-58
2023/09/22 03:10:13;;;;;;;;;4.00;4.00;;;;;14.76;76.54;98282.75;5093886;28;8984;-59
2023/09/22 03:12:42;;;;;;;;;2.00;1.00;;;;;14.76;75.91;98285.41;5094212;28;8826;-59
2023/09/22 03:15:11;;;;;;;;;2.00;2.00;;;;;14.76;76.22;98288.94;5093804;28;9579;-57
2023/09/22 03:17:41;;;;;;;;;1.00;1.00;;;;;14.74;76.39;98282.94;5094804;28;8842;-58
2023/09/22 03:20:12;;;;;;;;;3.00;1.80;;;;;14.71;76.08;98282.50;5094579;28;8826;-59
2023/09/22 03:22:47;;;;;;;;;0.60;0.40;;;;;14.65;76.36;98284.06;5094551;28;8842;-56
2023/09/22 03:25:16;;;;;;;;;1.00;1.00;;;;;14.59;76.40;98276.78;5093419;28;9548;-59
2023/09/22 03:27:44;;;;;;;;;0.75;0.75;;;;;14.52;76.32;98294.63;5093815;28;8835;-58
2023/09/22 03:30:12;;;;;;;;;0.75;0.75;;;;;14.46;76.79;98291.84;5093771;28;8819;-58
2023/09/22 03:32:52;;;;;;;;;1.50;1.50;;;;;14.41;76.68;98294.28;5093725;28;8827;-57
2023/09/22 03:35:21;;;;;;;;;1.00;1.00;;;;;14.34;76.45;98288.81;5093465;28;9509;-59
2023/09/22 03:37:52;;;;;;;;;1.00;0.50;;;;;14.28;76.97;98294.91;5096756;28;8942;-58
2023/09/22 03:40:40;;;;;;;;;0.25;0.00;;;;;14.24;76.97;98298.16;5096883;28;8863;-58
2023/09/22 03:43:08;;;;;;;;;0.50;0.50;;;;;14.18;76.92;98313.09;5096798;28;8876;-57
2023/09/22 03:45:37;;;;;;;;;1.00;1.00;;;;;14.13;77.61;98306.63;5097036;28;8839;-59
2023/09/22 03:48:05;;;;;;;;;1.00;1.00;;;;;14.09;77.10;98313.34;5096591;28;8831;-59
2023/09/22 03:50:33;;;;;;;;;1.00;1.00;;;;;14.04;76.84;98313.91;5097181;28;8824;-59
2023/09/22 03:53:02;;;;;;;;;2.50;2.50;;;;;13.99;77.35;98315.47;5096915;28;8855;-59
2023/09/22 03:55:31;;;;;;;;;1.00;1.00;;;;;13.94;77.55;98312.50;5097190;28;8859;-58
2023/09/22 03:58:14;;;;;;;;;3.00;2.00;;;;;13.88;77.68;98319.41;5096673;28;8859;-59
2023/09/22 04:00:43;;;;;;;;;0.25;0.25;;;;;13.83;77.86;98321.81;5097166;28;8953;-59
2023/09/22 04:03:11;;;;;;;;;1.00;1.00;;;;;13.81;77.91;98328.38;5097072;28;8878;-59
2023/09/22 04:05:39;;;;;;;;;1.00;1.00;;;;;13.77;77.48;98322.56;5097077;28;8816;-58
2023/09/22 04:08:07;;;;;;;;;1.00;1.00;;;;;13.75;78.00;98321.88;5097039;28;8836;-59
2023/09/22 04:10:35;;;;;;;;;1.00;1.00;;;;;13.73;77.74;98315.06;5095971;28;8831;-59
2023/09/22 04:13:03;;;;;;;;;4.00;3.00;;;;;13.70;77.86;98320.78;5096786;28;9109;-59
2023/09/22 04:15:31;;;;;;;;;1.00;1.00;;;;;13.67;77.93;98337.19;5095897;28;8807;-59
2023/09/22 04:18:01;;;;;;;;;2.00;2.00;;;;;13.66;78.17;98335.53;5096672;28;8816;-59
2023/09/22 04:20:35;;;;;;;;;2.00;1.00;;;;;13.63;77.58;98314.47;5096160;28;9589;-60
2023/09/22 04:23:04;;;;;;;;;0.00;0.00;;;;;13.61;77.68;98301.31;5096473;28;8845;-59
2023/09/22 04:25:34;;;;;;;;;1.00;0.50;;;;;13.60;78.30;98288.91;5095817;28;8818;-59
2023/09/22 04:28:08;;;;;;;;;1.00;1.00;;;;;13.58;77.99;98287.47;5096269;28;8838;-59
2023/09/22 04:30:36;;;;;;;;;0.75;0.75;;;;;13.58;78.14;98290.13;5095852;28;9569;-59
2023/09/22 04:33:04;;;;;;;;;1.00;0.50;;;;;13.56;77.78;98292.97;5096160;28;9479;-59
2023/09/22 04:35:32;;;;;;;;;1.50;1.00;;;;;13.53;77.92;98293.31;5096206;28;8854;-59
2023/09/22 04:38:01;;;;;;;;;1.00;1.00;;;;;13.52;78.29;98291.66;5094268;28;8830;-59
2023/09/22 04:40:30;;;;;;;;;1.00;1.00;;;;;13.51;78.17;98310.59;5094171;28;8848;-58
2023/09/22 04:42:58;;;;;;;;;1.00;1.00;;;;;13.49;78.06;98317.94;5095081;28;8846;-58
2023/09/22 04:45:26;;;;;;;;;1.00;1.00;;;;;13.47;77.78;98333.34;5094456;28;8837;-59
2023/09/22 04:47:55;;;;;;;;;2.50;2.50;;;;;13.45;78.01;98338.84;5094442;28;8891;-59
2023/09/22 04:50:24;;;;;;;;;0.00;0.00;;;;;13.45;77.82;98341.53;5095103;28;8850;-60
2023/09/22 04:52:53;;;;;;;;;1.00;1.00;;;;;13.45;77.83;98338.03;5095204;28;8846;-59
2023/09/22 04:55:21;;;;;;;;;1.00;0.75;;;;;13.43;77.82;98340.06;5094578;28;8857;-59
2023/09/22 04:57:49;;;;;;;;;1.00;1.00;;;;;13.43;77.47;98342.75;5094723;28;8826;-58
2023/09/22 05:00:21;;;;;;;;;2.00;0.00;;;;;13.41;78.33;98336.72;5094592;28;8831;-60
2023/09/22 05:02:50;;;;;;;;;1.00;1.00;;;;;13.41;77.85;98326.03;5094503;28;8838;-57
2023/09/22 05:05:18;;;;;;;;;1.75;1.75;;;;;13.41;77.75;98331.38;5093471;28;9192;-58
2023/09/22 05:07:47;;;;;;;;;1.00;1.00;;;;;13.41;77.78;98328.69;5093981;28;8956;-58
2023/09/22 05:10:15;;;;;;;;;1.00;1.00;;;;;13.43;77.59;98319.50;5094509;28;8838;-57
2023/09/22 05:15:41;;;;;;;;;0.00;0.00;;;;;13.50;77.38;98341.84;5093568;28;8834;-58
2023/09/22 05:18:12;;;;;;;;;1.00;1.00;;;;;13.56;77.58;98350.97;5093355;28;8834;-59
2023/09/22 05:20:40;;;;;;;;;1.00;1.00;;;;;13.59;77.02;98351.44;5093080;28;8818;-57
2023/09/22 05:23:08;;;;;;;;;0.75;0.75;;;;;13.63;77.19;98352.78;5093630;28;8956;-59
2023/09/22 05:25:36;;;;;;;;;3.00;3.00;;;;;13.69;77.23;98356.56;5093340;28;8826;-57
2023/09/22 05:28:05;;;;;;;;;0.75;0.75;;;;;13.72;76.83;98356.19;5093099;28;8850;-57
2023/09/22 05:30:34;;;;;;;;;0.00;0.00;;;;;13.74;76.77;98367.56;5092938;28;8891;-56
2023/09/22 05:33:06;;;;;;;;;0.75;0.75;;;;;13.75;76.80;98359.34;5092529;28;8939;-57
2023/09/22 05:35:35;;;;;;;;;0.50;0.50;;;;;13.77;76.89;98357.34;5092207;28;8829;-59
2023/09/22 05:38:04;;;;;;;;;0.00;0.00;;;;;13.80;76.76;98353.44;5091866;28;8814;-59
2023/09/22 05:40:33;;;;;;;;;0.00;0.00;;;;;13.82;76.18;98341.56;5092438;28;8901;-58
2023/09/22 05:43:02;;;;;;;;;1.00;1.00;;;;;13.85;76.79;98337.69;5092504;28;8853;-59
2023/09/22 05:45:30;;;;;;;;;0.25;0.25;;;;;13.87;75.99;98351.69;5092125;28;8952;-58
2023/09/22 05:47:57;;;;;;;;;1.00;1.00;;;;;13.88;76.07;98356.06;5091103;28;8806;-56
2023/09/22 05:50:25;;;;;;;;;0.25;0.00;;;;;13.88;76.09;98358.75;5092282;28;8826;-58
2023/09/22 05:52:53;;;;;;;;;1.00;1.00;;;;;13.86;76.59;98366.09;5092774;28;8963;-59
2023/09/22 05:55:20;;;;;;;;;1.00;1.00;;;;;13.86;76.46;98364.28;5092334;28;8834;-56
2023/09/22 05:57:48;;;;;;;;;1.00;1.00;;;;;13.88;76.71;98377.47;5092217;28;8830;-56
2023/09/22 06:00:18;;;;;;;;;0.00;0.00;;;;;13.91;76.38;98385.97;5092298;28;8826;-58
2023/09/22 06:02:46;;;;;;;;;0.00;0.00;;;;;13.99;76.09;98399.28;5091474;28;9787;-59
2023/09/22 06:05:14;;;;;;;;;1.00;1.00;;;;;14.07;75.39;98398.38;5091521;28;8889;-56
2023/09/22 06:07:42;;;;;;;;;0.00;0.00;;;;;14.13;75.82;98389.63;5091517;28;9491;-57
2023/09/22 06:10:10;;;;;;;;;0.75;0.75;;;;;14.17;75.43;98388.22;5090386;28;9479;-57
2023/09/22 06:12:38;;;;;;;;;0.00;0.00;;;;;14.24;75.54;98381.16;5090796;28;8842;-58
2023/09/22 06:15:06;;;;;;;;;0.00;0.00;;;;;14.28;75.67;98369.06;5091383;28;8903;-57
2023/09/22 06:17:34;;;;;;;;;0.00;0.00;;;;;14.34;74.90;98373.69;5091474;28;8856;-58
2023/09/22 06:20:08;;;;;;;;;0.50;0.50;;;;;14.37;75.70;98373.31;5090704;28;8895;-57
2023/09/22 06:22:36;;;;;;;;;0.75;0.75;;;;;14.40;75.29;98373.78;5090954;28;9870;-57
2023/09/22 06:25:04;;;;;;;;;0.00;0.00;;;;;14.44;74.87;98369.75;5089394;28;9591;-57
2023/09/22 06:27:32;;;;;;;;;0.50;0.50;;;;;14.49;74.96;98379.91;5089859;28;8970;-57
2023/09/22 06:30:00;;;;;;;;;0.75;0.75;;;;;14.49;74.43;98377.22;5091152;28;8814;-58
2023/09/22 06:32:29;;;;;;;;;0.00;0.00;;;;;14.55;74.93;98401.41;5091684;28;8850;-58
2023/09/22 06:34:57;;;;;;;;;1.00;1.00;;;;;14.61;74.35;98400.69;5092523;28;8890;-59
2023/09/22 06:37:25;;;;;;;;;0.25;0.25;;;;;14.69;74.35;98399.72;5092130;28;8903;-56
2023/09/22 06:39:53;;;;;;;;;1.00;1.00;;;;;14.74;74.86;98402.69;5093297;28;8810;-58
2023/09/22 06:42:22;;;;;;;;;1.00;1.00;;;;;14.76;74.26;98392.63;5091106;28;8973;-57
2023/09/22 06:44:49;;;;;;;;;0.20;0.00;;;;;14.79;73.77;98397.63;5090993;28;8810;-57
2023/09/22 06:47:17;;;;;;;;;0.00;0.00;;;;;14.83;74.49;98405.09;5090673;28;8852;-57
2023/09/22 06:49:45;;;;;;;;;1.40;0.00;;;;;14.88;74.25;98409.91;5090664;28;8954;-59
2023/09/22 06:52:13;;;;;;;;;1.00;0.60;;;;;14.93;74.09;98410.16;5091114;28;8906;-56
2023/09/22 06:54:41;;;;;;;;;1.00;1.00;;;;;14.96;73.61;98402.56;5090992;28;8814;-58
2023/09/22 06:57:10;;;;;;;;;0.60;0.60;;;;;14.99;73.75;98407.56;5090260;28;8852;-58
2023/09/22 06:59:38;;;;;;;;;1.00;0.00;;;;;15.01;74.14;98410.06;5092546;28;9480;-57
2023/09/22 07:02:06;;;;;;;;;0.00;0.00;;;;;15.06;73.78;98413.84;5092173;28;8905;-59
2023/09/22 07:04:34;;;;;;;;;0.00;0.00;;;;;15.13;73.32;98403.19;5092690;28;8912;-56
2023/09/22 07:07:02;;;;;;;;;0.80;0.80;;;;;15.20;73.24;98410.31;5092398;28;8927;-59
2023/09/22 07:09:30;;;;;;;;;0.60;0.60;;;;;15.28;73.31;98410.19;5091794;28;8842;-58
2023/09/22 07:11:58;;;;;;;;;0.00;0.00;;;;;15.37;73.09;98410.94;5095473;28;8810;-56
2023/09/22 07:14:26;;;;;;;;;0.00;0.00;;;;;15.42;73.11;98404.00;5095841;28;8842;-59
2023/09/22 07:16:54;;;;;;;;;1.00;1.00;;;;;15.49;73.00;98409.41;5095248;28;8817;-57
2023/09/22 07:19:22;;;;;;;;;0.40;0.40;;;;;15.56;73.03;98415.69;5095284;28;8830;-59
2023/09/22 07:21:51;;;;;;;;;0.00;0.00;;;;;15.64;72.80;98426.31;5096069;28;8997;-57
2023/09/22 07:24:20;;;;;;;;;0.00;0.00;;;;;15.69;72.48;98423.88;5096058;28;8956;-57
2023/09/22 07:26:47;;;;;;;;;0.00;0.00;;;;;15.70;72.69;98436.28;5094442;28;8826;-59
2023/09/22 07:29:17;;;;;;;;;0.00;0.00;;;;;15.69;72.87;98431.94;5094293;28;8848;-56
2023/09/22 07:31:45;;;;;;;;;1.00;1.00;;;;;15.71;72.13;98435.25;5091183;28;8818;-57
2023/09/22 07:34:13;;;;;;;;;0.60;0.60;;;;;15.73;72.52;98430.53;5094693;28;8830;-57
2023/09/22 07:36:41;;;;;;;;;1.00;1.00;;;;;15.77;72.80;98445.22;5094698;28;8842;-57
2023/09/22 07:39:10;;;;;;;;;0.80;0.80;;;;;15.78;72.53;98438.84;5095593;28;8849;-57
2023/09/22 07:41:38;;;;;;;;;0.00;0.00;;;;;15.79;72.34;98443.19;5095092;28;8818;-57
2023/09/22 07:44:06;;;;;;;;;1.00;1.00;;;;;15.83;72.62;98442.59;5095699;28;9550;-59
2023/09/22 07:46:33;;;;;;;;;0.20;0.20;;;;;15.85;72.26;98443.22;5095485;28;8938;-59
2023/09/22 07:49:02;;;;;;;;;0.00;0.00;;;;;15.87;72.69;98449.25;5094822;28;8956;-57
2023/09/22 07:51:30;;;;;;;;;1.00;1.00;;;;;15.88;72.42;98450.06;5093929;28;8818;-57
2023/09/22 07:53:59;;;;;;;;;0.00;0.00;;;;;15.88;72.52;98453.59;5095743;28;8842;-58
2023/09/22 07:56:27;;;;;;;;;1.00;0.80;;;;;15.92;72.74;98449.50;5095828;28;8830;-59
2023/09/22 07:58:55;;;;;;;;;0.00;0.00;;;;;15.98;72.19;98458.63;5095205;28;8814;-59
2023/09/22 08:01:42;;;;;;;;;1.00;1.00;;;;;16.06;72.27;98459.34;5094798;28;8818;-59
2023/09/22 08:04:10;;;;;;;;;1.00;0.60;;;;;16.13;71.74;98462.94;5096122;28;8892;-58
2023/09/22 08:06:38;;;;;;;;;0.00;0.00;;;;;16.17;72.21;98465.03;5094857;28;8830;-58
2023/09/22 08:09:06;;;;;;;;;0.80;0.80;;;;;16.27;71.73;98462.84;5095088;28;8822;-58
2023/09/22 08:11:34;;;;;;;;;0.00;0.00;;;;;16.38;71.53;98466.06;5094944;28;8838;-56
2023/09/22 08:14:01;;;;;;;;;0.00;0.00;;;;;16.45;71.06;98471.28;5094861;28;8818;-59
2023/09/22 08:16:29;;;;;;;;;0.40;0.40;;;;;16.50;71.41;98474.22;5094690;28;8828;-57
2023/09/22 08:18:57;;;;;;;;;0.20;0.20;;;;;16.51;70.66;98475.91;5094898;28;8806;-57
2023/09/22 08:21:25;;;;;;;;;0.00;0.00;;;;;16.58;70.81;98474.09;5094877;28;8819;-58
2023/09/22 08:23:53;;;;;;;;;0.20;0.20;;;;;16.63;70.50;98481.56;5095379;28;8824;-57
2023/09/22 08:26:23;;;;;;;;;1.00;0.40;;;;;16.73;70.87;98472.13;5094499;28;8826;-59
2023/09/22 08:28:51;;;;;;;;;0.40;0.40;;;;;16.83;70.53;98485.19;5093692;28;8829;-59
2023/09/22 08:31:19;;;;;;;;;0.00;0.00;;;;;16.93;70.33;98486.50;5093664;28;8814;-58
2023/09/22 08:33:47;;;;;;;;;0.40;0.40;;;;;17.02;69.67;98481.81;5094422;28;8862;-58
2023/09/22 08:36:15;;;;;;;;;0.40;0.40;;;;;17.14;69.66;98481.06;5093670;28;8848;-57
2023/09/22 08:38:44;;;;;;;;;1.00;1.00;;;;;17.20;69.66;98482.97;5093706;28;8918;-57
2023/09/22 08:41:12;;;;;;;;;0.00;0.00;;;;;17.23;69.78;98479.84;5093629;28;8818;-57
2023/09/22 08:43:40;;;;;;;;;0.60;0.60;;;;;17.27;69.95;98474.91;5093972;28;8806;-58
2023/09/22 08:46:08;;;;;;;;;0.80;0.80;;;;;17.25;69.33;98475.09;5093342;28;8927;-58
2023/09/22 08:48:35;;;;;;;;;0.00;0.00;;;;;17.31;69.39;98460.84;5094137;28;8819;-58
2023/09/22 08:51:04;;;;;;;;;0.60;0.60;;;;;17.48;69.53;98462.19;5094077;28;9514;-58
2023/09/22 08:53:32;;;;;;;;;0.20;0.00;;;;;17.52;69.43;98459.91;5093853;28;8858;-57
2023/09/22 08:56:01;;;;;;;;;1.80;1.00;;;;;17.60;68.82;98457.06;5093812;28;8948;-57
2023/09/22 08:58:29;;;;;;;;;0.60;0.60;;;;;17.64;68.74;98461.00;5093928;28;8810;-58
2023/09/22 09:00:56;;;;;;;;;1.00;0.40;;;;;17.62;68.72;98452.31;5093127;28;8829;-57
2023/09/22 09:03:24;;;;;;;;;0.80;0.00;;;;;17.64;68.33;98455.63;5093844;28;9261;-57
2023/09/22 09:05:53;;;;;;;;;0.00;0.00;;;;;17.65;68.44;98451.88;5094152;28;8829;-58
2023/09/22 09:08:21;;;;;;;;;0.00;0.00;;;;;17.67;69.09;98465.97;5093400;28;8810;-59
2023/09/22 09:10:49;;;;;;;;;0.20;0.20;;;;;17.67;68.88;98464.13;5093531;28;8806;-59
2023/09/22 09:13:16;;;;;;;;;0.00;0.00;;;;;17.73;68.18;98452.53;5094260;28;8856;-58
2023/09/22 09:15:45;;;;;;;;;0.60;0.00;;;;;17.83;68.09;98460.25;5094356;28;8846;-59
2023/09/22 09:18:13;;;;;;;;;1.00;1.00;;;;;17.81;68.17;98443.44;5074111;28;8836;-59
2023/09/22 09:20:41;;;;;;;;;0.00;0.00;;;;;17.79;68.30;98454.44;5092438;28;8865;-56
2023/09/22 09:23:09;;;;;;;;;1.00;1.00;;;;;17.76;68.16;98454.81;5094058;28;8850;-58
2023/09/22 09:25:38;;;;;;;;;0.00;0.00;;;;;17.80;67.97;98455.25;5093975;28;8956;-59
2023/09/22 09:28:08;;;;;;;;;0.00;0.00;;;;;17.81;68.36;98465.81;5093998;28;8828;-59
2023/09/22 09:30:36;;;;;;;;;0.00;0.00;;;;;17.87;67.96;98478.47;5093229;28;8822;-57
2023/09/22 09:33:05;;;;;;;;;0.00;0.00;;;;;17.86;67.81;98474.13;5092276;28;8846;-58
2023/09/22 09:35:34;;;;;;;;;0.00;0.00;;;;;17.91;68.03;98468.94;5090526;28;8898;-58
2023/09/22 09:38:17;;;;;;;;;0.20;0.20;;;;;18.10;67.36;98462.78;5090632;28;8973;-57
2023/09/22 09:40:45;;;;;;;;;0.80;0.80;;;;;18.34;66.38;98454.09;5071540;28;8839;-59
2023/09/22 09:43:13;;;;;;;;;2.60;1.00;;;;;18.45;66.02;98456.16;5091791;28;8835;-57
2023/09/22 09:45:40;;;;;;;;;0.00;0.00;;;;;18.38;66.31;98466.13;5093941;28;8818;-58
2023/09/22 09:48:09;;;;;;;;;0.00;0.00;;;;;18.24;66.54;98463.59;5091059;28;8842;-57
2023/09/22 09:50:38;;;;;;;;;1.00;1.00;;;;;18.15;66.80;98454.88;5093332;28;8818;-58
2023/09/22 09:53:06;;;;;;;;;0.00;0.00;;;;;18.43;66.43;98454.75;5093532;28;9686;-60
2023/09/22 09:55:34;;;;;;;;;0.00;0.00;;;;;18.55;66.11;98459.28;5092278;28;8833;-58
2023/09/22 09:58:02;;;;;;;;;0.00;0.00;;;;;18.58;65.52;98463.44;5092734;28;8826;-57
2023/09/22 10:00:35;;;;;;;;;0.80;0.80;;;;;18.63;65.40;98463.63;5092529;28;8818;-57
2023/09/22 10:03:04;;;;;;;;;2.60;0.80;;;;;18.55;65.49;98472.78;5092449;28;8842;-57
2023/09/22 10:05:33;;;;;;;;;0.60;0.60;;;;;18.45;66.00;98468.84;5093101;28;8833;-57
2023/09/22 10:08:01;;;;;;;;;0.00;0.00;;;;;18.34;66.07;98475.66;5092113;28;8826;-57
2023/09/22 10:10:29;;;;;;;;;0.00;0.00;;;;;18.56;65.50;98471.72;5090789;28;8826;-56
2023/09/22 10:12:57;;;;;;;;;0.00;0.00;;;;;18.89;65.32;98477.91;5089991;28;8834;-57
2023/09/22 10:15:24;;;;;;;;;0.40;0.00;;;;;18.91;65.31;98472.31;5089641;28;8810;-58
2023/09/22 10:17:52;;;;;;;;;1.00;1.00;;;;;18.88;65.11;98468.16;5090974;28;8830;-60
2023/09/22 10:20:20;;;;;;;;;0.00;0.00;;;;;18.94;64.94;98475.41;5090970;28;8833;-57
2023/09/22 10:22:48;;;;;;;;;1.00;1.00;;;;;19.52;63.60;98471.75;5091757;28;8818;-58
2023/09/22 10:25:16;;;;;;;;;2.60;1.40;;;;;19.72;62.90;98469.75;5092066;28;8846;-60
2023/09/22 10:27:54;;;;;;;;;1.00;1.00;;;;;19.66;63.07;98476.00;5090574;28;8961;-57
2023/09/22 10:30:30;;;;;;;;;1.00;1.00;;;;;19.52;63.75;98455.53;5091524;28;8854;-58
2023/09/22 10:32:58;;;;;;;;;0.00;0.00;;;;;19.44;63.73;98468.44;5090078;28;8911;-57
2023/09/22 10:35:26;;;;;;;;;0.60;0.60;;;;;19.57;63.50;98469.22;5089630;28;9499;-59
2023/09/22 10:37:54;;;;;;;;;2.20;1.00;;;;;19.57;63.41;98471.91;5091863;28;8924;-59
2023/09/22 10:40:22;;;;;;;;;1.80;1.80;;;;;19.44;63.12;98469.28;5091811;28;8892;-58
2023/09/22 10:42:50;;;;;;;;;1.00;1.00;;;;;19.40;63.54;98472.59;5091566;28;8922;-59
2023/09/22 10:45:19;;;;;;;;;1.00;1.00;;;;;19.52;63.00;98476.31;5091771;28;8810;-57
2023/09/22 10:47:47;;;;;;;;;2.20;2.20;;;;;19.85;61.97;98474.25;5094939;28;8912;-59
2023/09/22 10:50:15;;;;;;;;;0.60;0.60;;;;;20.11;61.57;98477.66;5095569;28;8987;-58
2023/09/22 10:52:43;;;;;;;;;1.00;1.00;;;;;20.24;61.39;98488.41;5095368;28;8852;-59
2023/09/22 10:55:13;;;;;;;;;1.00;1.00;;;;;20.09;61.31;98487.06;5095055;28;8850;-57
2023/09/22 10:57:43;;;;;;;;;1.40;1.40;;;;;19.87;61.66;98483.81;5095861;28;8814;-58
2023/09/22 11:00:13;;;;;;;;;2.60;1.00;;;;;19.82;62.25;98483.66;5095858;28;8846;-57
2023/09/22 11:02:41;;;;;;;;;2.00;2.00;;;;;19.98;60.87;98477.72;5095248;28;8818;-60
2023/09/22 11:05:09;;;;;;;;;2.40;2.40;;;;;20.04;61.37;98482.25;5094417;28;8879;-59
2023/09/22 11:07:37;;;;;;;;;1.00;1.00;;;;;19.99;61.09;98487.50;5094781;28;8849;-58
2023/09/22 11:10:06;;;;;;;;;1.60;1.60;;;;;19.86;60.89;98500.25;5094872;28;8830;-58
2023/09/22 11:12:34;;;;;;;;;3.60;3.00;;;;;19.75;61.06;98493.66;5095137;28;8834;-58
2023/09/22 11:15:03;;;;;;;;;1.00;1.00;;;;;19.75;61.22;98495.53;5094891;28;8807;-58
2023/09/22 11:17:30;;;;;;;;;2.40;1.00;;;;;19.71;61.38;98495.13;5095108;28;8854;-58
2023/09/22 11:19:58;;;;;;;;;1.00;1.00;;;;;19.73;61.17;98500.31;5093845;28;8826;-58
2023/09/22 11:22:26;;;;;;;;;0.00;0.00;;;;;19.80;60.94;98503.81;5094091;28;8837;-58
2023/09/22 11:24:54;;;;;;;;;1.00;1.00;;;;;19.99;59.90;98500.16;5095566;28;8834;-57
2023/09/22 11:27:22;;;;;;;;;1.00;1.00;;;;;20.31;59.38;98500.00;5094729;28;8837;-58
2023/09/22 11:29:50;;;;;;;;;1.00;1.00;;;;;20.52;58.73;98496.09;5094986;28;8834;-58
2023/09/22 11:32:18;;;;;;;;;1.60;1.00;;;;;20.57;58.86;98505.22;5095655;28;9511;-60
2023/09/22 11:34:46;;;;;;;;;1.00;1.00;;;;;20.57;59.40;98505.22;5094482;28;8846;-58
2023/09/22 11:37:33;;;;;;;;;1.60;1.00;;;;;21.37;55.90;98499.66;5094671;28;8821;-58
2023/09/22 11:40:01;;;;;;;;;0.00;0.00;;;;;22.31;54.89;98498.03;5095012;28;8841;-58
2023/09/22 11:42:28;;;;;;;;;0.60;0.60;;;;;23.37;53.04;98500.41;5094735;28;8904;-59
2023/09/22 11:44:56;;;;;;;;;0.00;0.00;;;;;24.22;51.06;98496.78;5094297;28;8810;-60
2023/09/22 11:47:24;;;;;;;;;0.00;0.00;;;;;24.97;49.60;98505.44;5093500;28;8825;-59
2023/09/22 11:49:52;;;;;;;;;1.60;1.20;;;;;25.38;48.69;98503.09;5093056;28;8825;-58
2023/09/22 11:52:20;;;;;;;;;1.00;1.00;;;;;24.90;50.20;98508.34;5093542;28;8960;-58
2023/09/22 11:54:48;;;;;;;;;1.00;1.00;;;;;25.33;48.98;98499.47;5092840;28;8858;-60